createdAt,value
2023-05-25T00:02:03.057Z,90.10
2023-05-25T00:06:05.676Z,90.20
2023-05-25T00:10:09.269Z,90.20
2023-05-25T00:14:11.399Z,90.10
2023-05-25T00:18:16.143Z,90.40
2023-05-25T00:22:18.388Z,90.60
2023-05-25T00:26:20.538Z,92.20
2023-05-25T00:30:22.857Z,93.00
2023-05-25T00:34:27.649Z,92.60
2023-05-25T00:38:29.817Z,93.30
2023-05-25T00:42:32.383Z,92.90
2023-05-25T00:46:34.999Z,92.60
2023-05-25T00:50:42.520Z,92.30
2023-05-25T00:54:48.500Z,92.20
2023-05-25T00:58:54.244Z,92.30
2023-05-25T01:02:58.873Z,92.80
2023-05-25T01:07:06.850Z,93.00
2023-05-25T01:11:11.995Z,93.40
2023-05-25T01:15:14.466Z,93.40
2023-05-25T01:19:16.571Z,93.40
2023-05-25T01:23:26.308Z,93.40
2023-05-25T01:27:33.115Z,93.60
2023-05-25T01:31:36.194Z,93.70
2023-05-25T01:35:41.498Z,93.70
2023-05-25T01:39:46.539Z,94.00
2023-05-25T01:43:48.795Z,94.30
2023-05-25T01:47:57.534Z,94.50
2023-05-25T01:52:07.968Z,94.80
2023-05-25T01:56:14.744Z,95.20
2023-05-25T02:00:18.973Z,95.70
2023-05-25T02:04:22.042Z,96.10
2023-05-25T02:08:24.245Z,96.70
2023-05-25T02:12:29.171Z,97.40
2023-05-25T02:16:31.430Z,98.30
2023-05-25T02:20:33.661Z,99.00
2023-05-25T02:24:35.824Z,99.70
2023-05-25T02:28:40.540Z,99.90
2023-05-25T02:32:42.697Z,99.90
2023-05-25T02:36:44.864Z,99.90
2023-05-25T02:40:46.965Z,99.90
2023-05-25T02:44:51.676Z,99.90
2023-05-25T02:48:53.841Z,99.90
2023-05-25T02:52:56.066Z,99.90
2023-05-25T02:56:58.223Z,99.90
2023-05-25T03:01:03.036Z,99.90
2023-05-25T03:05:05.850Z,99.90
2023-05-25T03:09:08.091Z,99.90
2023-05-25T03:13:10.205Z,99.90
2023-05-25T03:17:15.056Z,99.90
2023-05-25T03:21:17.317Z,99.90
2023-05-25T03:25:19.457Z,99.90
2023-05-25T03:29:21.680Z,99.90
2023-05-25T03:33:26.384Z,99.90
2023-05-25T03:37:28.473Z,99.90
2023-05-25T03:41:30.559Z,99.90
2023-05-25T03:45:32.745Z,99.90
2023-05-25T03:49:37.495Z,99.90
2023-05-25T03:53:39.669Z,99.90
2023-05-25T03:57:42.090Z,99.90
2023-05-25T04:01:44.467Z,99.90
2023-05-25T04:05:49.327Z,99.90
2023-05-25T04:09:51.426Z,99.90
2023-05-25T04:13:53.575Z,99.90
2023-05-25T04:17:55.810Z,99.90
2023-05-25T04:22:00.540Z,99.90
2023-05-25T04:26:02.928Z,99.90
2023-05-25T04:30:06.144Z,99.90
2023-05-25T04:34:08.296Z,99.90
2023-05-25T04:38:13.004Z,99.90
2023-05-25T04:42:15.170Z,99.90
2023-05-25T04:46:17.456Z,99.90
2023-05-25T04:50:19.734Z,99.90
2023-05-25T04:54:24.496Z,99.90
2023-05-25T04:58:26.654Z,99.90
2023-05-25T05:02:28.780Z,99.90
2023-05-25T05:06:30.952Z,99.90
2023-05-25T05:10:35.619Z,99.90
2023-05-25T05:14:37.764Z,99.90
2023-05-25T05:18:39.865Z,99.90
2023-05-25T05:22:41.978Z,99.90
2023-05-25T05:26:57.406Z,99.90
2023-05-25T05:31:00.895Z,99.90
2023-05-25T05:35:03.066Z,99.90
2023-05-25T05:39:05.204Z,99.90
2023-05-25T05:43:10.829Z,99.90
2023-05-25T05:47:12.930Z,99.90
2023-05-25T05:51:15.063Z,99.90
2023-05-25T05:55:17.380Z,99.90
2023-05-25T05:59:22.157Z,99.90
2023-05-25T06:03:24.330Z,99.90
2023-05-25T06:07:26.487Z,99.90
2023-05-25T06:11:28.590Z,99.90
2023-05-25T06:15:33.377Z,99.90
2023-05-25T06:19:35.523Z,99.90
2023-05-25T06:23:37.693Z,99.90
2023-05-25T06:27:40.006Z,99.90
2023-05-25T06:31:44.819Z,99.90
2023-05-25T06:35:47.410Z,99.90
2023-05-25T06:39:49.761Z,99.90
2023-05-25T06:43:51.843Z,99.90
2023-05-25T06:47:56.618Z,99.90
2023-05-25T06:51:58.785Z,99.90
2023-05-25T06:56:01.079Z,99.90
2023-05-25T07:00:03.489Z,99.90
2023-05-25T07:04:08.339Z,99.90
2023-05-25T07:08:10.462Z,99.90
2023-05-25T07:12:12.773Z,99.90
2023-05-25T07:16:15.320Z,99.70
2023-05-25T07:20:20.352Z,99.30
2023-05-25T07:24:22.526Z,99.60
2023-05-25T07:28:24.603Z,99.60
2023-05-25T07:32:26.712Z,99.30
2023-05-25T07:36:31.446Z,98.80
2023-05-25T07:40:33.551Z,99.30
2023-05-25T07:44:35.632Z,98.70
2023-05-25T07:48:38.071Z,98.40
2023-05-25T07:52:43.162Z,98.10
2023-05-25T07:56:45.380Z,97.40
2023-05-25T08:00:47.569Z,96.80
2023-05-25T08:04:49.780Z,96.50
2023-05-25T08:08:54.551Z,97.30
2023-05-25T08:12:58.327Z,97.40
2023-05-25T08:17:01.062Z,97.00
2023-05-25T08:21:03.441Z,97.20
2023-05-25T08:25:08.859Z,96.80
2023-05-25T08:29:10.942Z,96.40
2023-05-25T08:33:13.233Z,96.80
2023-05-25T08:37:15.385Z,96.00
2023-05-25T08:41:20.567Z,95.60
2023-05-25T08:45:34.181Z,95.30
2023-05-25T08:49:38.987Z,95.40
2023-05-25T08:53:43.519Z,94.60
2023-05-25T08:57:54.987Z,94.70
2023-05-25T09:02:05.445Z,94.90
2023-05-25T09:06:08.397Z,94.50
2023-05-25T09:10:12.180Z,93.80
2023-05-25T09:14:16.914Z,93.50
2023-05-25T09:18:19.203Z,93.20
2023-05-25T09:22:21.818Z,93.30
2023-05-25T09:26:23.971Z,93.20
2023-05-25T09:30:28.642Z,94.00
2023-05-25T09:34:32.018Z,94.30
2023-05-25T09:38:34.423Z,94.20
2023-05-25T09:42:37.002Z,93.60
2023-05-25T09:46:41.806Z,93.40
2023-05-25T09:50:45.953Z,93.70
2023-05-25T09:54:50.367Z,94.00
2023-05-25T09:58:52.654Z,93.90
2023-05-25T10:02:57.750Z,93.00
2023-05-25T10:07:01.434Z,92.70
2023-05-25T10:11:05.623Z,92.60
2023-05-25T10:15:11.135Z,92.60
2023-05-25T10:19:20.849Z,92.70
2023-05-25T10:23:24.949Z,92.20
2023-05-25T10:27:33.351Z,93.30
2023-05-25T10:31:36.007Z,92.30
2023-05-25T10:36:01.576Z,91.20
2023-05-25T10:40:07.056Z,91.00
2023-05-25T10:44:09.760Z,91.20
2023-05-25T10:48:11.954Z,91.00
2023-05-25T10:52:18.977Z,90.50
2023-05-25T10:56:21.141Z,90.30
2023-05-25T11:00:23.674Z,90.60
2023-05-25T11:04:25.900Z,90.70
2023-05-25T11:08:48.920Z,90.80
2023-05-25T11:12:51.734Z,90.20
2023-05-25T11:17:05.284Z,89.00
2023-05-25T11:21:21.187Z,88.70
2023-05-25T11:25:42.906Z,88.30
2023-05-25T11:29:50.006Z,87.20
2023-05-25T11:33:55.588Z,86.10
2023-05-25T11:37:58.501Z,86.50
2023-05-25T11:42:06.345Z,86.20
2023-05-25T11:46:09.714Z,84.60
2023-05-25T11:50:16.019Z,82.20
2023-05-25T11:54:25.660Z,83.50
2023-05-25T11:58:36.253Z,82.30
2023-05-25T12:02:40.197Z,81.50
2023-05-25T12:06:42.367Z,79.60
2023-05-25T12:10:51.094Z,78.90
2023-05-25T12:14:57.100Z,77.50
2023-05-25T12:18:59.968Z,76.80
2023-05-25T12:23:02.105Z,76.10
2023-05-25T12:27:04.546Z,73.50
2023-05-25T12:31:25.976Z,72.20
2023-05-25T12:35:29.535Z,70.60
2023-05-25T12:39:35.319Z,72.10
2023-05-25T12:43:38.632Z,72.40
2023-05-25T12:47:46.126Z,72.80
2023-05-25T12:51:48.285Z,74.50
2023-05-25T12:55:50.449Z,74.40
2023-05-25T12:59:56.810Z,74.60
2023-05-25T13:04:01.547Z,73.60
2023-05-25T13:08:04.413Z,73.30
2023-05-25T13:12:07.405Z,73.60
2023-05-25T13:16:09.599Z,74.40
2023-05-25T13:20:15.802Z,75.70
2023-05-25T13:24:18.523Z,74.10
2023-05-25T13:28:20.749Z,74.80
2023-05-25T13:32:22.832Z,75.00
2023-05-25T13:36:27.513Z,76.20
2023-05-25T13:40:29.646Z,74.80
2023-05-25T13:44:31.755Z,73.80
2023-05-25T13:48:33.899Z,74.50
2023-05-25T13:52:38.748Z,73.40
2023-05-25T13:56:40.969Z,73.90
2023-05-25T14:00:43.211Z,75.80
2023-05-25T14:04:45.417Z,75.70
2023-05-25T14:08:50.092Z,76.50
2023-05-25T14:12:52.298Z,76.80
2023-05-25T14:16:54.415Z,77.00
2023-05-25T14:20:56.510Z,76.70
2023-05-25T14:25:01.267Z,76.10
2023-05-25T14:29:03.717Z,74.50
2023-05-25T14:33:06.239Z,74.60
2023-05-25T14:37:08.563Z,73.10
2023-05-25T14:41:13.873Z,73.80
2023-05-25T14:45:16.374Z,73.50
2023-05-25T14:49:18.555Z,71.90
2023-05-25T14:53:20.690Z,72.90
2023-05-25T14:57:25.805Z,72.90
2023-05-25T15:01:27.955Z,72.10
2023-05-25T15:05:30.086Z,71.90
2023-05-25T15:09:32.191Z,71.80
2023-05-25T15:13:36.945Z,71.10
2023-05-25T15:17:39.192Z,70.10
2023-05-25T15:21:41.318Z,70.20
2023-05-25T15:25:43.422Z,71.30
2023-05-25T15:29:48.144Z,71.50
2023-05-25T15:33:57.924Z,71.00
2023-05-25T15:38:00.541Z,67.70
2023-05-25T15:42:04.569Z,67.20
2023-05-25T15:46:09.385Z,68.80
2023-05-25T15:50:12.037Z,69.90
2023-05-25T15:54:14.887Z,70.20
2023-05-25T15:58:17.201Z,70.60
2023-05-25T16:02:21.946Z,69.50
2023-05-25T16:06:24.215Z,68.40
2023-05-25T16:10:26.334Z,66.00
2023-05-25T16:14:28.428Z,64.00
2023-05-25T16:18:33.209Z,62.90
2023-05-25T16:22:35.389Z,59.80
2023-05-25T16:26:37.586Z,58.10
2023-05-25T16:30:39.721Z,53.70
2023-05-25T16:34:44.414Z,50.80
2023-05-25T16:38:46.571Z,47.60
2023-05-25T16:42:48.698Z,46.40
2023-05-25T16:46:50.808Z,46.00
2023-05-25T16:50:55.472Z,45.20
2023-05-25T16:54:57.670Z,48.90
2023-05-25T16:58:59.859Z,47.50
2023-05-25T17:03:02.066Z,49.00
2023-05-25T17:07:06.899Z,47.90
2023-05-25T17:11:09.070Z,45.80
2023-05-25T17:15:11.611Z,44.40
2023-05-25T17:19:13.910Z,43.60
2023-05-25T17:23:18.802Z,46.80
2023-05-25T17:27:21.095Z,50.80
2023-05-25T17:31:23.392Z,52.40
2023-05-25T17:35:25.675Z,54.10
2023-05-25T17:39:30.426Z,56.00
2023-05-25T17:43:32.529Z,57.10
2023-05-25T17:47:34.784Z,63.30
2023-05-25T17:51:37.035Z,60.40
2023-05-25T17:55:41.908Z,58.20
2023-05-25T17:59:45.800Z,58.50
2023-05-25T18:03:48.214Z,60.50
2023-05-25T18:07:50.352Z,66.10
2023-05-25T18:11:55.408Z,71.70
2023-05-25T18:15:59.456Z,75.30
2023-05-25T18:20:01.715Z,76.70
2023-05-25T18:24:04.281Z,78.50
2023-05-25T18:28:08.950Z,80.60
2023-05-25T18:32:11.147Z,81.70
2023-05-25T18:36:13.419Z,83.60
